sensor_id;sensor_type;location;lat;lon;timestamp;P1;durP1;ratioP1;P2;durP2;ratioP2
16979;SDS011;42288;52.182;21.156;2023-08-06T00:00:38;38.93;;;17.93;;
16979;SDS011;42288;52.182;21.156;2023-08-06T00:03:04;34.27;;;17.07;;
16979;SDS011;42288;52.182;21.156;2023-08-06T00:05:29;44.00;;;18.70;;
16979;SDS011;42288;52.182;21.156;2023-08-06T00:07:55;49.03;;;20.17;;
16979;SDS011;42288;52.182;21.156;2023-08-06T00:10:20;53.67;;;20.57;;
16979;SDS011;42288;52.182;21.156;2023-08-06T00:12:46;35.30;;;17.00;;
16979;SDS011;42288;52.182;21.156;2023-08-06T00:15:11;45.07;;;18.20;;
16979;SDS011;42288;52.182;21.156;2023-08-06T00:17:37;42.20;;;18.07;;
16979;SDS011;42288;52.182;21.156;2023-08-06T00:20:03;45.13;;;19.23;;
16979;SDS011;42288;52.182;21.156;2023-08-06T00:22:37;38.90;;;17.30;;
16979;SDS011;42288;52.182;21.156;2023-08-06T00:25:04;40.63;;;18.50;;
16979;SDS011;42288;52.182;21.156;2023-08-06T00:27:30;42.27;;;18.67;;
16979;SDS011;42288;52.182;21.156;2023-08-06T00:29:57;52.47;;;20.30;;
16979;SDS011;42288;52.182;21.156;2023-08-06T00:32:23;41.97;;;18.60;;
16979;SDS011;42288;52.182;21.156;2023-08-06T00:34:49;42.67;;;19.33;;
16979;SDS011;42288;52.182;21.156;2023-08-06T00:37:18;46.20;;;19.13;;
16979;SDS011;42288;52.182;21.156;2023-08-06T00:39:43;37.27;;;17.27;;
16979;SDS011;42288;52.182;21.156;2023-08-06T00:42:10;44.40;;;20.27;;
16979;SDS011;42288;52.182;21.156;2023-08-06T00:44:36;51.00;;;21.07;;
16979;SDS011;42288;52.182;21.156;2023-08-06T00:47:03;42.53;;;20.57;;
16979;SDS011;42288;52.182;21.156;2023-08-06T00:49:29;41.23;;;19.63;;
16979;SDS011;42288;52.182;21.156;2023-08-06T00:51:54;44.60;;;20.57;;
16979;SDS011;42288;52.182;21.156;2023-08-06T00:54:21;45.27;;;20.27;;
16979;SDS011;42288;52.182;21.156;2023-08-06T00:56:47;43.27;;;20.23;;
16979;SDS011;42288;52.182;21.156;2023-08-06T00:59:13;37.20;;;18.73;;
16979;SDS011;42288;52.182;21.156;2023-08-06T01:01:39;34.47;;;16.40;;
16979;SDS011;42288;52.182;21.156;2023-08-06T01:04:04;34.53;;;18.13;;
16979;SDS011;42288;52.182;21.156;2023-08-06T01:06:35;21.43;;;11.83;;
16979;SDS011;42288;52.182;21.156;2023-08-06T01:11:57;32.23;;;15.43;;
16979;SDS011;42288;52.182;21.156;2023-08-06T01:14:52;28.07;;;14.23;;
16979;SDS011;42288;52.182;21.156;2023-08-06T01:17:25;25.43;;;14.27;;
16979;SDS011;42288;52.182;21.156;2023-08-06T01:19:52;23.20;;;13.20;;
16979;SDS011;42288;52.182;21.156;2023-08-06T01:22:18;18.47;;;10.83;;
16979;SDS011;42288;52.182;21.156;2023-08-06T01:24:45;26.43;;;14.57;;
16979;SDS011;42288;52.182;21.156;2023-08-06T01:27:33;22.97;;;13.77;;
16979;SDS011;42288;52.182;21.156;2023-08-06T01:30:29;19.93;;;11.70;;
16979;SDS011;42288;52.182;21.156;2023-08-06T01:32:58;21.37;;;12.20;;
16979;SDS011;42288;52.182;21.156;2023-08-06T01:35:28;19.37;;;11.80;;
16979;SDS011;42288;52.182;21.156;2023-08-06T01:37:55;17.20;;;11.50;;
16979;SDS011;42288;52.182;21.156;2023-08-06T01:40:21;16.77;;;10.30;;
16979;SDS011;42288;52.182;21.156;2023-08-06T01:42:47;17.83;;;10.37;;
16979;SDS011;42288;52.182;21.156;2023-08-06T01:45:12;17.13;;;9.97;;
16979;SDS011;42288;52.182;21.156;2023-08-06T01:47:38;21.63;;;11.17;;
16979;SDS011;42288;52.182;21.156;2023-08-06T01:50:04;15.93;;;10.10;;
16979;SDS011;42288;52.182;21.156;2023-08-06T01:52:29;17.67;;;10.93;;
16979;SDS011;42288;52.182;21.156;2023-08-06T01:54:55;18.20;;;9.60;;
16979;SDS011;42288;52.182;21.156;2023-08-06T01:57:21;23.80;;;13.27;;
16979;SDS011;42288;52.182;21.156;2023-08-06T01:59:46;23.07;;;13.07;;
16979;SDS011;42288;52.182;21.156;2023-08-06T02:02:12;22.43;;;13.63;;
16979;SDS011;42288;52.182;21.156;2023-08-06T02:04:37;16.87;;;11.03;;
16979;SDS011;42288;52.182;21.156;2023-08-06T02:07:03;15.47;;;10.40;;
16979;SDS011;42288;52.182;21.156;2023-08-06T02:09:29;18.30;;;11.67;;
16979;SDS011;42288;52.182;21.156;2023-08-06T02:11:54;16.70;;;10.80;;
16979;SDS011;42288;52.182;21.156;2023-08-06T02:14:20;18.30;;;11.70;;
16979;SDS011;42288;52.182;21.156;2023-08-06T02:16:45;20.63;;;11.27;;
16979;SDS011;42288;52.182;21.156;2023-08-06T02:19:11;17.30;;;10.23;;
16979;SDS011;42288;52.182;21.156;2023-08-06T02:21:36;12.23;;;8.07;;
16979;SDS011;42288;52.182;21.156;2023-08-06T02:24:02;13.67;;;9.30;;
16979;SDS011;42288;52.182;21.156;2023-08-06T02:26:28;17.97;;;10.63;;
16979;SDS011;42288;52.182;21.156;2023-08-06T02:28:53;17.70;;;11.30;;
16979;SDS011;42288;52.182;21.156;2023-08-06T02:31:19;17.83;;;11.10;;
16979;SDS011;42288;52.182;21.156;2023-08-06T02:33:44;18.03;;;11.90;;
16979;SDS011;42288;52.182;21.156;2023-08-06T02:36:10;18.07;;;10.63;;
16979;SDS011;42288;52.182;21.156;2023-08-06T02:38:35;18.07;;;11.23;;
16979;SDS011;42288;52.182;21.156;2023-08-06T02:41:04;16.93;;;11.33;;
16979;SDS011;42288;52.182;21.156;2023-08-06T02:43:30;16.93;;;11.43;;
16979;SDS011;42288;52.182;21.156;2023-08-06T02:45:59;13.83;;;10.47;;
16979;SDS011;42288;52.182;21.156;2023-08-06T02:48:25;21.63;;;13.90;;
16979;SDS011;42288;52.182;21.156;2023-08-06T02:50:51;17.40;;;12.00;;
16979;SDS011;42288;52.182;21.156;2023-08-06T02:53:16;17.07;;;11.50;;
16979;SDS011;42288;52.182;21.156;2023-08-06T02:55:45;18.60;;;11.83;;
16979;SDS011;42288;52.182;21.156;2023-08-06T02:58:15;19.93;;;12.07;;
16979;SDS011;42288;52.182;21.156;2023-08-06T03:00:41;18.17;;;11.47;;
16979;SDS011;42288;52.182;21.156;2023-08-06T03:03:08;20.33;;;12.87;;
16979;SDS011;42288;52.182;21.156;2023-08-06T03:05:33;15.63;;;11.53;;
16979;SDS011;42288;52.182;21.156;2023-08-06T03:07:59;15.47;;;11.17;;
16979;SDS011;42288;52.182;21.156;2023-08-06T03:10:25;19.23;;;11.30;;
16979;SDS011;42288;52.182;21.156;2023-08-06T03:12:51;15.10;;;10.43;;
16979;SDS011;42288;52.182;21.156;2023-08-06T03:15:16;20.83;;;13.37;;
16979;SDS011;42288;52.182;21.156;2023-08-06T03:17:42;17.70;;;11.90;;
16979;SDS011;42288;52.182;21.156;2023-08-06T03:20:09;19.93;;;12.47;;
16979;SDS011;42288;52.182;21.156;2023-08-06T03:22:35;19.73;;;13.10;;
16979;SDS011;42288;52.182;21.156;2023-08-06T03:25:01;18.27;;;12.87;;
16979;SDS011;42288;52.182;21.156;2023-08-06T03:27:26;21.63;;;14.53;;
16979;SDS011;42288;52.182;21.156;2023-08-06T03:29:52;16.60;;;10.87;;
16979;SDS011;42288;52.182;21.156;2023-08-06T03:32:17;19.63;;;13.43;;
16979;SDS011;42288;52.182;21.156;2023-08-06T03:34:43;20.00;;;13.13;;
16979;SDS011;42288;52.182;21.156;2023-08-06T03:37:09;19.70;;;13.40;;
16979;SDS011;42288;52.182;21.156;2023-08-06T03:39:34;21.63;;;14.83;;
16979;SDS011;42288;52.182;21.156;2023-08-06T03:42:00;21.40;;;13.70;;
16979;SDS011;42288;52.182;21.156;2023-08-06T03:44:26;20.90;;;13.23;;
16979;SDS011;42288;52.182;21.156;2023-08-06T03:46:53;21.53;;;14.70;;
16979;SDS011;42288;52.182;21.156;2023-08-06T03:49:18;22.30;;;14.80;;
16979;SDS011;42288;52.182;21.156;2023-08-06T03:51:44;23.90;;;15.33;;
16979;SDS011;42288;52.182;21.156;2023-08-06T03:54:09;23.27;;;15.37;;
16979;SDS011;42288;52.182;21.156;2023-08-06T03:56:35;22.70;;;14.50;;
16979;SDS011;42288;52.182;21.156;2023-08-06T03:59:01;17.37;;;13.50;;
16979;SDS011;42288;52.182;21.156;2023-08-06T04:01:26;23.63;;;16.67;;
16979;SDS011;42288;52.182;21.156;2023-08-06T04:03:52;22.37;;;15.23;;
16979;SDS011;42288;52.182;21.156;2023-08-06T04:06:17;21.60;;;15.23;;
16979;SDS011;42288;52.182;21.156;2023-08-06T04:08:43;21.07;;;15.13;;
16979;SDS011;42288;52.182;21.156;2023-08-06T04:11:08;25.13;;;15.80;;
16979;SDS011;42288;52.182;21.156;2023-08-06T04:13:34;18.40;;;13.43;;
16979;SDS011;42288;52.182;21.156;2023-08-06T04:16:02;22.07;;;16.57;;
16979;SDS011;42288;52.182;21.156;2023-08-06T04:18:28;22.60;;;15.27;;
16979;SDS011;42288;52.182;21.156;2023-08-06T04:20:54;22.03;;;15.83;;
16979;SDS011;42288;52.182;21.156;2023-08-06T04:23:20;21.17;;;15.37;;
16979;SDS011;42288;52.182;21.156;2023-08-06T04:25:46;21.83;;;15.47;;
16979;SDS011;42288;52.182;21.156;2023-08-06T04:28:11;23.13;;;17.33;;
16979;SDS011;42288;52.182;21.156;2023-08-06T04:30:37;25.03;;;15.70;;
16979;SDS011;42288;52.182;21.156;2023-08-06T04:33:03;19.30;;;13.87;;
16979;SDS011;42288;52.182;21.156;2023-08-06T04:35:28;22.70;;;15.70;;
16979;SDS011;42288;52.182;21.156;2023-08-06T04:37:54;22.13;;;15.20;;
16979;SDS011;42288;52.182;21.156;2023-08-06T04:40:19;22.17;;;14.43;;
16979;SDS011;42288;52.182;21.156;2023-08-06T04:42:45;19.13;;;13.53;;
16979;SDS011;42288;52.182;21.156;2023-08-06T04:45:10;17.20;;;14.40;;
16979;SDS011;42288;52.182;21.156;2023-08-06T04:47:36;17.97;;;13.60;;
16979;SDS011;42288;52.182;21.156;2023-08-06T04:50:01;18.40;;;14.03;;
16979;SDS011;42288;52.182;21.156;2023-08-06T04:52:27;17.03;;;13.47;;
16979;SDS011;42288;52.182;21.156;2023-08-06T04:54:53;16.30;;;13.37;;
16979;SDS011;42288;52.182;21.156;2023-08-06T04:57:19;18.63;;;13.67;;
16979;SDS011;42288;52.182;21.156;2023-08-06T04:59:45;17.80;;;12.10;;
16979;SDS011;42288;52.182;21.156;2023-08-06T05:02:11;19.67;;;13.50;;
16979;SDS011;42288;52.182;21.156;2023-08-06T05:04:37;15.60;;;12.53;;
16979;SDS011;42288;52.182;21.156;2023-08-06T05:07:02;13.10;;;10.53;;
16979;SDS011;42288;52.182;21.156;2023-08-06T05:09:28;16.73;;;10.10;;
16979;SDS011;42288;52.182;21.156;2023-08-06T05:11:54;16.40;;;11.27;;
16979;SDS011;42288;52.182;21.156;2023-08-06T05:14:19;14.70;;;11.43;;
16979;SDS011;42288;52.182;21.156;2023-08-06T05:16:45;16.07;;;11.47;;
16979;SDS011;42288;52.182;21.156;2023-08-06T05:19:10;13.37;;;11.23;;
16979;SDS011;42288;52.182;21.156;2023-08-06T05:21:36;16.63;;;10.27;;
16979;SDS011;42288;52.182;21.156;2023-08-06T05:24:01;15.50;;;11.07;;
16979;SDS011;42288;52.182;21.156;2023-08-06T05:26:27;13.80;;;10.20;;
16979;SDS011;42288;52.182;21.156;2023-08-06T05:28:53;17.23;;;9.90;;
16979;SDS011;42288;52.182;21.156;2023-08-06T05:31:18;13.50;;;9.27;;
16979;SDS011;42288;52.182;21.156;2023-08-06T05:33:44;15.20;;;9.60;;
16979;SDS011;42288;52.182;21.156;2023-08-06T05:36:09;16.27;;;10.67;;
16979;SDS011;42288;52.182;21.156;2023-08-06T05:38:35;10.53;;;8.90;;
16979;SDS011;42288;52.182;21.156;2023-08-06T05:41:00;16.77;;;10.07;;
16979;SDS011;42288;52.182;21.156;2023-08-06T05:43:26;12.17;;;8.73;;
16979;SDS011;42288;52.182;21.156;2023-08-06T05:45:51;12.40;;;8.90;;
16979;SDS011;42288;52.182;21.156;2023-08-06T05:48:17;13.97;;;9.90;;
16979;SDS011;42288;52.182;21.156;2023-08-06T05:50:43;13.00;;;8.37;;
16979;SDS011;42288;52.182;21.156;2023-08-06T05:53:08;13.93;;;9.63;;
16979;SDS011;42288;52.182;21.156;2023-08-06T05:55:34;13.47;;;8.67;;
16979;SDS011;42288;52.182;21.156;2023-08-06T05:58:00;11.03;;;8.33;;
16979;SDS011;42288;52.182;21.156;2023-08-06T06:00:26;12.47;;;9.50;;
16979;SDS011;42288;52.182;21.156;2023-08-06T06:02:51;12.10;;;7.80;;
16979;SDS011;42288;52.182;21.156;2023-08-06T06:05:17;11.60;;;8.57;;
16979;SDS011;42288;52.182;21.156;2023-08-06T06:07:42;9.77;;;8.00;;
16979;SDS011;42288;52.182;21.156;2023-08-06T06:10:08;13.70;;;8.37;;
16979;SDS011;42288;52.182;21.156;2023-08-06T06:12:34;11.70;;;8.90;;
16979;SDS011;42288;52.182;21.156;2023-08-06T06:14:59;12.43;;;9.07;;
16979;SDS011;42288;52.182;21.156;2023-08-06T06:17:26;12.00;;;8.83;;
16979;SDS011;42288;52.182;21.156;2023-08-06T06:19:54;11.63;;;7.80;;
16979;SDS011;42288;52.182;21.156;2023-08-06T06:22:20;13.13;;;8.70;;
16979;SDS011;42288;52.182;21.156;2023-08-06T06:24:45;17.40;;;7.90;;
16979;SDS011;42288;52.182;21.156;2023-08-06T06:27:11;12.57;;;7.43;;
16979;SDS011;42288;52.182;21.156;2023-08-06T06:29:36;11.17;;;7.70;;
16979;SDS011;42288;52.182;21.156;2023-08-06T06:32:02;12.30;;;7.83;;
16979;SDS011;42288;52.182;21.156;2023-08-06T06:34:28;11.33;;;7.83;;
16979;SDS011;42288;52.182;21.156;2023-08-06T06:36:53;11.87;;;8.10;;
16979;SDS011;42288;52.182;21.156;2023-08-06T06:39:19;12.87;;;8.43;;
16979;SDS011;42288;52.182;21.156;2023-08-06T06:41:45;15.23;;;7.73;;
16979;SDS011;42288;52.182;21.156;2023-08-06T06:44:11;13.00;;;8.10;;
16979;SDS011;42288;52.182;21.156;2023-08-06T06:46:38;11.27;;;7.30;;
16979;SDS011;42288;52.182;21.156;2023-08-06T06:49:03;15.10;;;8.43;;
16979;SDS011;42288;52.182;21.156;2023-08-06T06:51:29;11.87;;;7.67;;
16979;SDS011;42288;52.182;21.156;2023-08-06T06:53:56;11.00;;;7.90;;
16979;SDS011;42288;52.182;21.156;2023-08-06T06:56:22;13.67;;;7.90;;
16979;SDS011;42288;52.182;21.156;2023-08-06T06:58:48;25.83;;;7.83;;
16979;SDS011;42288;52.182;21.156;2023-08-06T07:01:13;14.00;;;7.03;;
16979;SDS011;42288;52.182;21.156;2023-08-06T07:03:39;9.63;;;7.40;;
16979;SDS011;42288;52.182;21.156;2023-08-06T07:06:05;15.47;;;7.93;;
16979;SDS011;42288;52.182;21.156;2023-08-06T07:08:31;10.30;;;7.57;;
16979;SDS011;42288;52.182;21.156;2023-08-06T07:11:01;12.67;;;8.00;;
16979;SDS011;42288;52.182;21.156;2023-08-06T07:13:30;8.73;;;7.23;;
16979;SDS011;42288;52.182;21.156;2023-08-06T07:15:56;12.70;;;7.63;;
16979;SDS011;42288;52.182;21.156;2023-08-06T07:18:22;13.93;;;7.37;;
16979;SDS011;42288;52.182;21.156;2023-08-06T07:20:49;13.27;;;7.30;;
16979;SDS011;42288;52.182;21.156;2023-08-06T07:23:15;12.83;;;8.27;;
16979;SDS011;42288;52.182;21.156;2023-08-06T07:25:40;9.73;;;6.83;;
16979;SDS011;42288;52.182;21.156;2023-08-06T07:28:06;10.23;;;7.53;;
16979;SDS011;42288;52.182;21.156;2023-08-06T07:30:31;12.30;;;7.80;;
16979;SDS011;42288;52.182;21.156;2023-08-06T07:32:57;14.10;;;8.50;;
16979;SDS011;42288;52.182;21.156;2023-08-06T07:35:23;10.77;;;7.37;;
16979;SDS011;42288;52.182;21.156;2023-08-06T07:37:48;11.53;;;7.20;;
16979;SDS011;42288;52.182;21.156;2023-08-06T07:40:14;11.30;;;7.50;;
16979;SDS011;42288;52.182;21.156;2023-08-06T07:42:39;9.57;;;6.90;;
16979;SDS011;42288;52.182;21.156;2023-08-06T07:45:05;10.60;;;6.87;;
16979;SDS011;42288;52.182;21.156;2023-08-06T07:47:32;11.50;;;7.00;;
16979;SDS011;42288;52.182;21.156;2023-08-06T07:49:57;15.10;;;8.07;;
16979;SDS011;42288;52.182;21.156;2023-08-06T07:52:23;8.53;;;6.70;;
16979;SDS011;42288;52.182;21.156;2023-08-06T07:54:48;18.43;;;7.77;;
16979;SDS011;42288;52.182;21.156;2023-08-06T07:57:14;14.40;;;6.83;;
16979;SDS011;42288;52.182;21.156;2023-08-06T07:59:40;13.57;;;7.17;;
16979;SDS011;42288;52.182;21.156;2023-08-06T08:02:05;13.17;;;8.17;;
16979;SDS011;42288;52.182;21.156;2023-08-06T08:04:31;11.00;;;6.90;;
16979;SDS011;42288;52.182;21.156;2023-08-06T08:06:57;16.70;;;7.55;;
16979;SDS011;42288;52.182;21.156;2023-08-06T08:09:22;11.37;;;7.20;;
16979;SDS011;42288;52.182;21.156;2023-08-06T08:11:48;12.67;;;6.80;;
16979;SDS011;42288;52.182;21.156;2023-08-06T08:14:14;9.37;;;7.43;;
16979;SDS011;42288;52.182;21.156;2023-08-06T08:16:39;11.87;;;7.37;;
16979;SDS011;42288;52.182;21.156;2023-08-06T08:19:05;9.50;;;6.27;;
16979;SDS011;42288;52.182;21.156;2023-08-06T08:21:31;10.63;;;7.53;;
16979;SDS011;42288;52.182;21.156;2023-08-06T08:23:58;12.07;;;6.90;;
16979;SDS011;42288;52.182;21.156;2023-08-06T08:26:25;9.73;;;6.63;;
16979;SDS011;42288;52.182;21.156;2023-08-06T08:28:52;11.55;;;6.68;;
16979;SDS011;42288;52.182;21.156;2023-08-06T08:31:18;10.32;;;6.88;;
16979;SDS011;42288;52.182;21.156;2023-08-06T08:33:44;9.43;;;6.22;;
16979;SDS011;42288;52.182;21.156;2023-08-06T08:36:09;7.85;;;6.05;;
16979;SDS011;42288;52.182;21.156;2023-08-06T08:38:35;10.77;;;7.15;;
16979;SDS011;42288;52.182;21.156;2023-08-06T08:41:01;14.20;;;6.68;;
16979;SDS011;42288;52.182;21.156;2023-08-06T08:43:26;9.77;;;6.30;;
16979;SDS011;42288;52.182;21.156;2023-08-06T08:45:53;10.30;;;6.93;;
16979;SDS011;42288;52.182;21.156;2023-08-06T08:48:23;13.48;;;5.80;;
16979;SDS011;42288;52.182;21.156;2023-08-06T08:50:50;15.57;;;6.40;;
16979;SDS011;42288;52.182;21.156;2023-08-06T08:53:17;9.15;;;6.40;;
16979;SDS011;42288;52.182;21.156;2023-08-06T08:55:43;10.68;;;6.25;;
16979;SDS011;42288;52.182;21.156;2023-08-06T08:58:11;9.73;;;6.32;;
16979;SDS011;42288;52.182;21.156;2023-08-06T09:00:37;13.07;;;7.03;;
16979;SDS011;42288;52.182;21.156;2023-08-06T09:03:06;16.38;;;7.07;;
16979;SDS011;42288;52.182;21.156;2023-08-06T09:05:31;10.63;;;6.22;;
16979;SDS011;42288;52.182;21.156;2023-08-06T09:08:04;8.27;;;5.40;;
16979;SDS011;42288;52.182;21.156;2023-08-06T09:10:30;10.55;;;6.47;;
16979;SDS011;42288;52.182;21.156;2023-08-06T09:12:56;9.48;;;6.20;;
16979;SDS011;42288;52.182;21.156;2023-08-06T09:15:26;9.65;;;6.68;;
16979;SDS011;42288;52.182;21.156;2023-08-06T09:17:52;8.40;;;6.10;;
16979;SDS011;42288;52.182;21.156;2023-08-06T09:20:19;8.65;;;5.90;;
16979;SDS011;42288;52.182;21.156;2023-08-06T09:22:45;15.68;;;6.70;;
16979;SDS011;42288;52.182;21.156;2023-08-06T09:25:13;7.50;;;5.93;;
16979;SDS011;42288;52.182;21.156;2023-08-06T09:27:50;9.10;;;6.20;;
16979;SDS011;42288;52.182;21.156;2023-08-06T09:33:12;9.10;;;6.45;;
16979;SDS011;42288;52.182;21.156;2023-08-06T09:35:43;11.43;;;6.20;;
16979;SDS011;42288;52.182;21.156;2023-08-06T09:38:10;9.73;;;6.15;;
16979;SDS011;42288;52.182;21.156;2023-08-06T09:40:37;7.50;;;5.07;;
16979;SDS011;42288;52.182;21.156;2023-08-06T09:43:03;10.23;;;5.80;;
16979;SDS011;42288;52.182;21.156;2023-08-06T09:45:37;9.73;;;5.40;;
16979;SDS011;42288;52.182;21.156;2023-08-06T09:48:04;6.47;;;5.32;;
16979;SDS011;42288;52.182;21.156;2023-08-06T09:50:30;8.63;;;5.15;;
16979;SDS011;42288;52.182;21.156;2023-08-06T09:52:58;9.48;;;5.22;;
16979;SDS011;42288;52.182;21.156;2023-08-06T09:55:24;8.80;;;5.22;;
16979;SDS011;42288;52.182;21.156;2023-08-06T09:57:51;8.40;;;5.40;;
16979;SDS011;42288;52.182;21.156;2023-08-06T10:00:17;9.93;;;5.47;;
16979;SDS011;42288;52.182;21.156;2023-08-06T10:02:43;6.53;;;5.18;;
16979;SDS011;42288;52.182;21.156;2023-08-06T10:05:10;6.85;;;5.00;;
16979;SDS011;42288;52.182;21.156;2023-08-06T10:07:36;10.52;;;5.78;;
16979;SDS011;42288;52.182;21.156;2023-08-06T10:10:04;7.57;;;5.65;;
16979;SDS011;42288;52.182;21.156;2023-08-06T10:12:31;10.18;;;5.38;;
16979;SDS011;42288;52.182;21.156;2023-08-06T10:14:59;10.40;;;5.43;;
16979;SDS011;42288;52.182;21.156;2023-08-06T10:17:29;11.52;;;5.45;;
16979;SDS011;42288;52.182;21.156;2023-08-06T10:19:56;5.82;;;4.80;;
16979;SDS011;42288;52.182;21.156;2023-08-06T10:22:23;6.05;;;4.90;;
16979;SDS011;42288;52.182;21.156;2023-08-06T10:27:33;7.22;;;5.05;;
16979;SDS011;42288;52.182;21.156;2023-08-06T10:33:10;7.13;;;5.18;;
16979;SDS011;42288;52.182;21.156;2023-08-06T10:38:22;6.88;;;4.60;;
16979;SDS011;42288;52.182;21.156;2023-08-06T10:43:26;9.55;;;5.15;;
16979;SDS011;42288;52.182;21.156;2023-08-06T10:45:59;9.40;;;4.70;;
16979;SDS011;42288;52.182;21.156;2023-08-06T10:48:35;5.80;;;4.88;;
16979;SDS011;42288;52.182;21.156;2023-08-06T10:51:11;6.85;;;5.30;;
16979;SDS011;42288;52.182;21.156;2023-08-06T10:53:38;9.93;;;5.15;;
16979;SDS011;42288;52.182;21.156;2023-08-06T10:56:14;7.70;;;4.78;;
16979;SDS011;42288;52.182;21.156;2023-08-06T10:58:41;6.85;;;5.22;;
16979;SDS011;42288;52.182;21.156;2023-08-06T11:01:07;7.63;;;4.57;;
16979;SDS011;42288;52.182;21.156;2023-08-06T11:03:33;6.18;;;4.50;;
16979;SDS011;42288;52.182;21.156;2023-08-06T11:05:59;8.55;;;4.88;;
16979;SDS011;42288;52.182;21.156;2023-08-06T11:08:25;9.82;;;4.93;;
16979;SDS011;42288;52.182;21.156;2023-08-06T11:10:51;8.60;;;4.53;;
16979;SDS011;42288;52.182;21.156;2023-08-06T11:13:17;4.78;;;3.80;;
16979;SDS011;42288;52.182;21.156;2023-08-06T11:15:44;6.07;;;4.32;;
16979;SDS011;42288;52.182;21.156;2023-08-06T11:18:10;7.57;;;3.90;;
16979;SDS011;42288;52.182;21.156;2023-08-06T11:20:36;6.18;;;3.97;;
16979;SDS011;42288;52.182;21.156;2023-08-06T11:23:02;7.15;;;4.15;;
16979;SDS011;42288;52.182;21.156;2023-08-06T11:25:28;6.50;;;4.18;;
16979;SDS011;42288;52.182;21.156;2023-08-06T11:27:54;5.25;;;4.40;;
16979;SDS011;42288;52.182;21.156;2023-08-06T11:30:19;5.25;;;4.03;;
16979;SDS011;42288;52.182;21.156;2023-08-06T11:32:45;8.30;;;4.43;;
16979;SDS011;42288;52.182;21.156;2023-08-06T11:35:15;6.63;;;4.90;;
16979;SDS011;42288;52.182;21.156;2023-08-06T11:37:44;4.65;;;3.88;;
16979;SDS011;42288;52.182;21.156;2023-08-06T11:40:11;9.20;;;4.60;;
16979;SDS011;42288;52.182;21.156;2023-08-06T11:42:37;6.50;;;4.22;;
16979;SDS011;42288;52.182;21.156;2023-08-06T11:45:03;4.90;;;4.40;;
16979;SDS011;42288;52.182;21.156;2023-08-06T11:47:29;5.13;;;4.22;;
16979;SDS011;42288;52.182;21.156;2023-08-06T11:49:55;7.65;;;4.20;;
16979;SDS011;42288;52.182;21.156;2023-08-06T11:52:24;9.27;;;4.78;;
16979;SDS011;42288;52.182;21.156;2023-08-06T11:55:06;5.75;;;4.70;;
16979;SDS011;42288;52.182;21.156;2023-08-06T11:57:35;7.13;;;4.88;;
16979;SDS011;42288;52.182;21.156;2023-08-06T12:00:08;7.80;;;5.28;;
16979;SDS011;42288;52.182;21.156;2023-08-06T12:02:35;6.50;;;4.65;;
16979;SDS011;42288;52.182;21.156;2023-08-06T12:05:20;7.07;;;4.50;;
16979;SDS011;42288;52.182;21.156;2023-08-06T12:10:18;11.25;;;4.63;;
16979;SDS011;42288;52.182;21.156;2023-08-06T12:12:45;8.77;;;5.18;;
16979;SDS011;42288;52.182;21.156;2023-08-06T12:15:11;7.22;;;5.28;;
16979;SDS011;42288;52.182;21.156;2023-08-06T12:17:37;8.20;;;4.80;;
16979;SDS011;42288;52.182;21.156;2023-08-06T12:20:03;11.10;;;4.90;;
16979;SDS011;42288;52.182;21.156;2023-08-06T12:22:29;5.28;;;4.57;;
16979;SDS011;42288;52.182;21.156;2023-08-06T12:25:03;9.35;;;5.13;;
16979;SDS011;42288;52.182;21.156;2023-08-06T12:27:36;7.75;;;5.15;;
16979;SDS011;42288;52.182;21.156;2023-08-06T12:30:09;6.88;;;5.65;;
16979;SDS011;42288;52.182;21.156;2023-08-06T12:32:36;6.63;;;5.88;;
16979;SDS011;42288;52.182;21.156;2023-08-06T12:35:03;7.15;;;5.88;;
16979;SDS011;42288;52.182;21.156;2023-08-06T12:37:29;11.93;;;6.90;;
16979;SDS011;42288;52.182;21.156;2023-08-06T12:39:55;7.00;;;6.22;;
16979;SDS011;42288;52.182;21.156;2023-08-06T12:42:21;8.40;;;6.20;;
16979;SDS011;42288;52.182;21.156;2023-08-06T12:44:50;8.48;;;5.65;;
16979;SDS011;42288;52.182;21.156;2023-08-06T12:47:16;7.60;;;5.93;;
16979;SDS011;42288;52.182;21.156;2023-08-06T12:49:42;8.25;;;5.82;;
16979;SDS011;42288;52.182;21.156;2023-08-06T12:52:07;8.55;;;6.28;;
16979;SDS011;42288;52.182;21.156;2023-08-06T12:54:34;8.50;;;6.47;;
16979;SDS011;42288;52.182;21.156;2023-08-06T12:57:02;9.60;;;6.22;;
16979;SDS011;42288;52.182;21.156;2023-08-06T12:59:28;11.60;;;7.15;;
16979;SDS011;42288;52.182;21.156;2023-08-06T13:01:54;8.15;;;5.88;;
16979;SDS011;42288;52.182;21.156;2023-08-06T13:04:19;10.48;;;6.45;;
16979;SDS011;42288;52.182;21.156;2023-08-06T13:06:45;10.13;;;5.55;;
16979;SDS011;42288;52.182;21.156;2023-08-06T13:09:11;10.05;;;7.60;;
16979;SDS011;42288;52.182;21.156;2023-08-06T13:11:37;11.23;;;7.65;;
16979;SDS011;42288;52.182;21.156;2023-08-06T13:14:10;16.27;;;7.87;;
16979;SDS011;42288;52.182;21.156;2023-08-06T13:16:37;11.10;;;7.23;;
16979;SDS011;42288;52.182;21.156;2023-08-06T13:19:05;8.87;;;7.30;;
16979;SDS011;42288;52.182;21.156;2023-08-06T13:21:32;10.70;;;6.60;;
16979;SDS011;42288;52.182;21.156;2023-08-06T13:23:58;10.97;;;8.33;;
16979;SDS011;42288;52.182;21.156;2023-08-06T13:26:23;10.53;;;7.63;;
16979;SDS011;42288;52.182;21.156;2023-08-06T13:28:49;10.37;;;6.93;;
16979;SDS011;42288;52.182;21.156;2023-08-06T13:31:15;13.47;;;6.67;;
16979;SDS011;42288;52.182;21.156;2023-08-06T13:33:41;9.77;;;5.90;;
16979;SDS011;42288;52.182;21.156;2023-08-06T13:36:06;9.47;;;6.50;;
16979;SDS011;42288;52.182;21.156;2023-08-06T13:38:32;11.70;;;6.17;;
16979;SDS011;42288;52.182;21.156;2023-08-06T13:40:58;7.47;;;5.93;;
16979;SDS011;42288;52.182;21.156;2023-08-06T13:43:24;10.30;;;6.13;;
16979;SDS011;42288;52.182;21.156;2023-08-06T13:45:49;12.23;;;6.23;;
16979;SDS011;42288;52.182;21.156;2023-08-06T13:48:15;10.23;;;6.10;;
16979;SDS011;42288;52.182;21.156;2023-08-06T13:50:40;6.70;;;5.68;;
16979;SDS011;42288;52.182;21.156;2023-08-06T13:53:06;7.10;;;5.43;;
16979;SDS011;42288;52.182;21.156;2023-08-06T13:55:31;7.63;;;5.67;;
16979;SDS011;42288;52.182;21.156;2023-08-06T13:57:57;9.30;;;5.85;;
16979;SDS011;42288;52.182;21.156;2023-08-06T14:00:22;10.13;;;5.78;;
16979;SDS011;42288;52.182;21.156;2023-08-06T14:02:48;8.77;;;5.70;;
16979;SDS011;42288;52.182;21.156;2023-08-06T14:05:13;7.07;;;5.30;;
16979;SDS011;42288;52.182;21.156;2023-08-06T14:07:39;11.15;;;6.00;;
16979;SDS011;42288;52.182;21.156;2023-08-06T14:10:05;7.93;;;6.15;;
16979;SDS011;42288;52.182;21.156;2023-08-06T14:12:31;6.90;;;5.22;;
16979;SDS011;42288;52.182;21.156;2023-08-06T14:14:56;8.23;;;5.68;;
16979;SDS011;42288;52.182;21.156;2023-08-06T14:17:22;6.75;;;4.97;;
16979;SDS011;42288;52.182;21.156;2023-08-06T14:19:48;7.60;;;5.63;;
16979;SDS011;42288;52.182;21.156;2023-08-06T14:22:13;8.50;;;5.50;;
16979;SDS011;42288;52.182;21.156;2023-08-06T14:24:39;9.38;;;4.93;;
16979;SDS011;42288;52.182;21.156;2023-08-06T14:27:04;6.80;;;5.28;;
16979;SDS011;42288;52.182;21.156;2023-08-06T14:29:31;7.28;;;4.93;;
16979;SDS011;42288;52.182;21.156;2023-08-06T14:31:56;7.32;;;5.10;;
16979;SDS011;42288;52.182;21.156;2023-08-06T14:34:22;7.50;;;4.90;;
16979;SDS011;42288;52.182;21.156;2023-08-06T14:36:47;9.05;;;5.30;;